Friday, October 24, 2014, 10:37 AM EDT
Back to Local

KCXY, Harrisburg Capital City

Location: New Cumberland, PA, United States Lat: 40.217
Local Time: 10:37 AM EDT (14:37 GMT) Lon: -76.85
Time Zone: US/Eastern Elev: 347 ft

Show me the last for .
Show Decoded

2014-10-24 09:56 METAR KCXY 241356Z 30013G22KT 10SM CLR 14/04 A2995 RMK AO2 SLP143 T01440044 =
2014-10-24 08:56 METAR KCXY 241256Z 27009KT 10SM SCT042 13/06 A2995 RMK AO2 SLP143 T01330061 =
2014-10-24 07:56 METAR KCXY 241156Z 30007KT 10SM CLR 13/06 A2993 RMK AO2 SLP136 T01330061 10144
                 20128 51004 =
2014-10-24 06:56 METAR KCXY 241056Z 32012G17KT 10SM SCT038 13/06 A2993 RMK AO2 SLP134 T01330061 =
2014-10-24 05:56 METAR KCXY 240956Z AUTO 30011KT 10SM OVC037 14/06 A2993 RMK AO2 SLP136 T01390061
                 =
2014-10-24 04:56 METAR KCXY 240856Z AUTO 29009KT 10SM OVC037 14/06 A2992 RMK AO2 SLP132 T01390061
                 53009 =
2014-10-24 03:56 METAR KCXY 240756Z AUTO 30005G17KT 10SM OVC039 14/06 A2990 RMK AO2 SLP125
                 T01390056 =
2014-10-24 02:56 METAR KCXY 240656Z AUTO 30008KT 10SM OVC042 14/06 A2990 RMK AO2 SLP125 T01390056
                 =
2014-10-24 01:56 METAR KCXY 240556Z AUTO 29008KT 10SM OVC044 14/05 A2989 RMK AO2 SLP121 T01440050
                 10167 20144 56005 =
2014-10-24 00:56 METAR KCXY 240456Z AUTO 31009KT 10SM OVC047 15/04 A2989 RMK AO2 SLP122 T01500044
                 401780117 =
2014-10-23 23:56 METAR KCXY 240356Z AUTO 33010G18KT 10SM OVC049 16/04 A2990 RMK AO2 SLP125
                 T01560044 =
2014-10-23 22:56 METAR KCXY 240256Z AUTO 34009G16KT 10SM OVC050 16/05 A2990 RMK AO2 SLP127
                 T01610050 53004 =
2014-10-23 21:56 METAR KCXY 240156Z AUTO 34008KT 10SM OVC050 16/06 A2990 RMK AO2 SLP125 T01610056
                 =
2014-10-23 20:56 METAR KCXY 240056Z AUTO 35006KT 10SM OVC050 16/06 A2989 RMK AO2 SLP123 T01610061
                 =
2014-10-23 19:56 METAR KCXY 232356Z 35007KT 10SM OVC050 17/06 A2989 RMK AO2 SLP123 T01670061
                 10178 20156 53017 =
2014-10-23 18:56 METAR KCXY 232256Z 36007G16KT 10SM OVC049 17/07 A2987 RMK AO2 SLP117 T01720067 =
2014-10-23 17:56 METAR KCXY 232156Z 34004KT 10SM OVC049 17/07 A2985 RMK AO2 SLP109 T01670072 =
2014-10-23 16:56 METAR KCXY 232056Z 34008KT 10SM OVC047 16/07 A2984 RMK AO2 SLP105 T01610072
                 50000 =
2014-10-23 15:56 METAR KCXY 231956Z 32014G19KT 10SM OVC043 17/07 A2985 RMK AO2 PK WND 32026/1933
                 SLP108 T01670072 =
2014-10-23 14:56 METAR KCXY 231856Z 34017G23KT 10SM BKN042 BKN100 17/07 A2984 RMK AO2 SLP106
                 T01670067 =
2014-10-23 13:56 METAR KCXY 231756Z 32012G19KT 10SM BKN039 16/07 A2984 RMK AO2 SLP105 T01610072
                 10161 20122 58018 =
2014-10-23 12:56 METAR KCXY 231656Z 33016G23KT 10SM OVC034 15/07 A2986 RMK AO2 SLP111 T01500067 =
2014-10-23 11:56 METAR KCXY 231556Z 33009KT 10SM OVC031 14/07 A2988 RMK AO2 SLP118 T01390067 =
2014-10-23 10:56 METAR KCXY 231456Z 33011G18KT 10SM OVC031 13/06 A2989 RMK AO2 SLP124 T01330061
                 55001 =

Support USWX by starting your Amazon purchase here.